createdAt,value
2023-03-11T00:00:17.204Z,1.17
2023-03-11T00:02:45.488Z,1.10
2023-03-11T00:05:22.035Z,1.17
2023-03-11T00:07:49.446Z,1.08
2023-03-11T00:10:19.512Z,2.17
2023-03-11T00:12:46.906Z,0.55
2023-03-11T00:15:14.937Z,0.95
2023-03-11T00:17:42.317Z,1.00
2023-03-11T00:20:15.982Z,0.98
2023-03-11T00:22:43.257Z,1.30
2023-03-11T00:25:11.525Z,1.17
2023-03-11T00:27:38.867Z,1.20
2023-03-11T00:30:06.548Z,0.85
2023-03-11T00:32:34.042Z,1.27
2023-03-11T00:35:02.205Z,1.08
2023-03-11T00:37:29.582Z,2.65
2023-03-11T00:39:58.272Z,1.20
2023-03-11T00:42:25.878Z,2.30
2023-03-11T00:44:53.240Z,2.42
2023-03-11T00:47:20.542Z,1.30
2023-03-11T00:49:47.973Z,1.30
2023-03-11T00:52:15.946Z,1.70
2023-03-11T00:54:43.327Z,1.20
2023-03-11T00:57:10.724Z,1.13
2023-03-11T00:59:38.296Z,1.45
2023-03-11T01:02:05.650Z,1.52
2023-03-11T01:04:33.500Z,1.13
2023-03-11T01:07:01.300Z,2.05
2023-03-11T01:09:28.604Z,0.93
2023-03-11T01:11:55.960Z,1.00
2023-03-11T01:14:23.378Z,1.08
2023-03-11T01:16:50.826Z,0.88
2023-03-11T01:19:18.230Z,1.00
2023-03-11T01:21:45.594Z,1.00
2023-03-11T01:24:12.919Z,1.08
2023-03-11T01:26:40.253Z,0.93
2023-03-11T01:29:07.487Z,1.00
2023-03-11T01:31:34.793Z,1.30
2023-03-11T01:34:02.361Z,1.17
2023-03-11T01:36:29.677Z,1.02
2023-03-11T01:38:57.929Z,0.60
2023-03-11T01:41:25.270Z,1.20
2023-03-11T01:43:54.949Z,1.38
2023-03-11T01:46:25.516Z,1.20
2023-03-11T01:48:56.997Z,1.05
2023-03-11T01:51:36.476Z,1.00
2023-03-11T01:54:06.213Z,1.20
2023-03-11T01:56:33.785Z,1.00
2023-03-11T01:59:01.234Z,0.93
2023-03-11T02:01:28.806Z,1.10
2023-03-11T02:03:57.495Z,1.00
2023-03-11T02:06:25.027Z,0.93
2023-03-11T02:08:53.495Z,1.02
2023-03-11T02:11:24.919Z,1.05
2023-03-11T02:13:53.135Z,1.13
2023-03-11T02:16:20.493Z,1.30
2023-03-11T02:18:47.820Z,1.05
2023-03-11T02:21:23.541Z,1.15
2023-03-11T02:23:54.100Z,1.30
2023-03-11T02:26:25.578Z,0.98
2023-03-11T02:28:54.363Z,0.95
2023-03-11T02:31:22.497Z,1.38
2023-03-11T02:33:51.741Z,1.00
2023-03-11T02:36:37.993Z,1.00
2023-03-11T02:39:06.875Z,1.33
2023-03-11T02:41:38.012Z,2.08
2023-03-11T02:44:08.189Z,1.08
2023-03-11T02:46:36.181Z,2.50
2023-03-11T02:49:04.451Z,2.10
2023-03-11T02:51:33.413Z,1.05
2023-03-11T02:54:04.035Z,1.30
2023-03-11T02:56:32.299Z,1.00
2023-03-11T02:59:00.397Z,1.15
2023-03-11T03:01:29.205Z,1.10
2023-03-11T03:03:56.766Z,0.85
2023-03-11T03:06:25.109Z,1.05
2023-03-11T03:08:53.006Z,1.15
2023-03-11T03:11:20.425Z,1.27
2023-03-11T03:13:49.060Z,1.30
2023-03-11T03:16:16.467Z,1.02
2023-03-11T03:18:43.817Z,1.17
2023-03-11T03:21:11.088Z,2.13
2023-03-11T03:23:38.857Z,1.10
2023-03-11T03:26:06.526Z,1.30
2023-03-11T03:28:37.173Z,1.13
2023-03-11T03:31:05.821Z,2.30
2023-03-11T03:33:33.350Z,1.10
2023-03-11T03:36:01.606Z,1.40
2023-03-11T03:38:36.865Z,1.50
2023-03-11T03:41:04.553Z,1.40
2023-03-11T03:43:32.350Z,1.30
2023-03-11T03:46:01.080Z,1.25
2023-03-11T03:48:32.549Z,2.10
2023-03-11T03:51:05.474Z,1.63
2023-03-11T03:53:34.881Z,1.80
2023-03-11T03:56:09.563Z,2.00
2023-03-11T03:58:37.787Z,2.08
2023-03-11T04:01:06.148Z,1.70
2023-03-11T04:03:35.243Z,2.05
2023-03-11T04:06:11.467Z,1.98
2023-03-11T04:08:40.551Z,3.92
2023-03-11T04:11:09.623Z,2.10
2023-03-11T04:13:37.459Z,2.10
2023-03-11T04:16:06.523Z,2.25
2023-03-11T04:18:34.730Z,1.60
2023-03-11T04:21:05.707Z,1.75
2023-03-11T04:23:33.329Z,2.30
2023-03-11T04:26:01.178Z,2.15
2023-03-11T04:28:28.699Z,1.95
2023-03-11T04:30:56.160Z,2.40
2023-03-11T04:33:23.834Z,1.30
2023-03-11T04:35:51.165Z,1.95
2023-03-11T04:38:19.450Z,1.45
2023-03-11T04:40:46.988Z,1.90
2023-03-11T04:43:14.367Z,1.50
2023-03-11T04:45:44.945Z,1.67
2023-03-11T04:48:13.483Z,1.65
2023-03-11T04:50:41.687Z,1.70
2023-03-11T04:53:09.073Z,2.42
2023-03-11T04:55:37.129Z,1.10
2023-03-11T04:58:04.561Z,3.08
2023-03-11T05:00:33.143Z,1.73
2023-03-11T05:03:05.573Z,1.23
2023-03-11T05:05:33.482Z,2.03
2023-03-11T05:08:01.354Z,1.25
2023-03-11T05:10:31.963Z,1.50
2023-03-11T05:13:02.249Z,1.13
2023-03-11T05:15:33.350Z,1.60
2023-03-11T05:18:02.970Z,3.60
2023-03-11T05:20:33.249Z,1.67
2023-03-11T05:23:00.647Z,1.60
2023-03-11T05:25:31.284Z,1.65
2023-03-11T05:27:59.041Z,1.35
2023-03-11T05:30:26.791Z,2.05
2023-03-11T05:32:56.355Z,2.10
2023-03-11T05:35:24.674Z,1.58
2023-03-11T05:37:53.645Z,1.67
2023-03-11T05:40:22.464Z,2.00
2023-03-11T05:42:50.486Z,1.50
2023-03-11T05:45:17.793Z,1.35
2023-03-11T05:47:47.789Z,1.73
2023-03-11T05:50:16.859Z,1.90
2023-03-11T05:52:46.305Z,2.50
2023-03-11T05:55:13.763Z,1.45
2023-03-11T05:57:44.116Z,1.67
2023-03-11T06:00:12.461Z,1.50
2023-03-11T06:02:46.629Z,2.13
2023-03-11T06:05:17.305Z,1.70
2023-03-11T06:07:46.352Z,1.80
2023-03-11T06:10:14.137Z,1.50
2023-03-11T06:15:28.493Z,2.42
2023-03-11T06:17:56.104Z,3.70
2023-03-11T06:20:23.650Z,2.15
2023-03-11T06:22:51.895Z,2.15
2023-03-11T06:25:22.766Z,2.38
2023-03-11T06:27:51.611Z,1.90
2023-03-11T06:30:20.367Z,2.67
2023-03-11T06:33:15.177Z,2.75
2023-03-11T06:35:43.395Z,2.40
2023-03-11T06:38:10.752Z,2.40
2023-03-11T06:40:38.430Z,3.50
2023-03-11T06:43:05.813Z,2.30
2023-03-11T06:45:37.215Z,2.83
2023-03-11T06:48:04.769Z,2.75
2023-03-11T06:50:33.635Z,2.88
2023-03-11T06:53:06.587Z,4.32
2023-03-11T06:55:35.540Z,3.50
2023-03-11T06:58:03.779Z,3.47
2023-03-11T07:00:33.743Z,3.70
2023-03-11T07:03:02.829Z,3.80
2023-03-11T07:05:30.951Z,3.40
2023-03-11T07:08:02.880Z,3.20
2023-03-11T07:10:30.311Z,3.45
2023-03-11T07:12:57.746Z,3.30
2023-03-11T07:15:25.244Z,2.78
2023-03-11T07:17:52.778Z,3.53
2023-03-11T07:20:20.345Z,4.45
2023-03-11T07:22:47.688Z,4.07
2023-03-11T07:25:15.145Z,4.30
2023-03-11T07:27:42.376Z,3.78
2023-03-11T07:30:10.010Z,3.45
2023-03-11T07:32:37.363Z,3.58
2023-03-11T07:35:04.842Z,3.67
2023-03-11T07:37:32.138Z,3.85
2023-03-11T07:39:59.428Z,3.72
2023-03-11T07:42:26.732Z,3.90
2023-03-11T07:44:55.027Z,3.30
2023-03-11T07:47:22.366Z,2.83
2023-03-11T07:49:49.672Z,2.58
2023-03-11T07:52:16.956Z,2.70
2023-03-11T07:54:45.338Z,2.20
2023-03-11T07:57:17.119Z,1.53
2023-03-11T07:59:44.529Z,2.63
2023-03-11T08:02:11.969Z,2.53
2023-03-11T08:04:39.335Z,1.90
2023-03-11T08:07:06.669Z,1.73
2023-03-11T08:09:35.307Z,2.58
2023-03-11T08:12:02.658Z,1.80
2023-03-11T08:14:29.951Z,2.05
2023-03-11T08:16:57.293Z,2.40
2023-03-11T08:19:24.974Z,2.30
2023-03-11T08:21:52.288Z,1.83
2023-03-11T08:24:19.600Z,1.95
2023-03-11T08:26:46.889Z,1.48
2023-03-11T08:29:14.216Z,2.15
2023-03-11T08:31:41.506Z,1.98
2023-03-11T08:34:10.363Z,2.28
2023-03-11T08:36:37.730Z,3.08
2023-03-11T08:39:05.211Z,2.00
2023-03-11T08:41:32.672Z,3.42
2023-03-11T08:44:00.490Z,1.90
2023-03-11T08:46:29.765Z,1.80
2023-03-11T08:51:27.805Z,1.70
2023-03-11T08:53:55.193Z,1.63
2023-03-11T08:56:22.554Z,2.38
2023-03-11T08:58:50.861Z,1.20
2023-03-11T09:01:18.336Z,2.58
2023-03-11T09:03:45.744Z,1.80
2023-03-11T09:06:15.517Z,1.25
2023-03-11T09:08:43.367Z,1.90
2023-03-11T09:11:13.502Z,1.85
2023-03-11T09:13:41.422Z,1.35
2023-03-11T09:16:28.969Z,1.50
2023-03-11T09:18:56.320Z,1.40
2023-03-11T09:21:23.903Z,1.10
2023-03-11T09:23:51.305Z,1.17
2023-03-11T09:26:18.681Z,1.30
2023-03-11T09:28:50.853Z,1.35
2023-03-11T09:31:18.603Z,0.98
2023-03-11T09:33:46.533Z,1.63
2023-03-11T09:36:14.916Z,1.60
2023-03-11T09:38:42.768Z,1.63
2023-03-11T09:41:19.325Z,1.10
2023-03-11T09:43:52.848Z,1.15
2023-03-11T09:46:42.544Z,2.58
2023-03-11T09:49:16.159Z,0.88
2023-03-11T09:51:47.447Z,0.73
2023-03-11T09:54:14.828Z,1.25
2023-03-11T09:56:44.527Z,1.20
2023-03-11T09:59:18.168Z,2.75
2023-03-11T10:01:47.361Z,0.95
2023-03-11T10:04:35.044Z,0.95
2023-03-11T10:07:03.008Z,1.20
2023-03-11T10:09:50.592Z,1.48
2023-03-11T10:12:26.070Z,1.33
2023-03-11T10:15:09.472Z,1.10
2023-03-11T10:17:55.680Z,1.50
2023-03-11T10:20:39.041Z,1.40
2023-03-11T10:23:21.648Z,1.63
2023-03-11T10:25:51.974Z,1.00
2023-03-11T10:28:19.970Z,1.15
2023-03-11T10:30:53.787Z,1.15
2023-03-11T10:33:25.258Z,1.20
2023-03-11T10:35:54.277Z,1.05
2023-03-11T10:38:24.170Z,1.40
2023-03-11T10:40:52.212Z,1.20
2023-03-11T10:43:19.481Z,1.40
2023-03-11T10:45:48.683Z,1.98
2023-03-11T10:51:02.765Z,1.10
2023-03-11T10:53:30.690Z,1.20
2023-03-11T10:55:59.457Z,1.45
2023-03-11T10:58:28.303Z,1.33
2023-03-11T11:01:03.111Z,1.95
2023-03-11T11:03:31.017Z,1.65
2023-03-11T11:05:59.605Z,1.88
2023-03-11T11:08:27.478Z,1.13
2023-03-11T11:10:56.580Z,1.20
2023-03-11T11:13:35.447Z,1.05
2023-03-11T11:16:04.143Z,0.80
2023-03-11T11:18:43.655Z,1.10
2023-03-11T11:21:15.471Z,1.25
2023-03-11T11:23:45.821Z,1.50
2023-03-11T11:26:18.711Z,1.85
2023-03-11T11:28:46.422Z,1.52
2023-03-11T11:31:26.748Z,1.65
2023-03-11T11:33:57.254Z,1.38
2023-03-11T11:36:28.470Z,1.52
2023-03-11T11:38:56.720Z,1.20
2023-03-11T11:41:25.112Z,1.75
2023-03-11T11:43:56.658Z,1.40
2023-03-11T11:46:30.243Z,1.20
2023-03-11T11:49:04.576Z,1.40
2023-03-11T11:51:31.917Z,1.10
2023-03-11T11:54:02.409Z,1.42
2023-03-11T11:56:30.046Z,1.10
2023-03-11T11:58:57.355Z,1.00
2023-03-11T12:01:24.778Z,0.82
2023-03-11T12:04:13.130Z,1.42
2023-03-11T12:06:55.795Z,1.30
2023-03-11T12:09:29.219Z,1.25
2023-03-11T12:12:13.539Z,2.05
2023-03-11T12:14:44.552Z,1.20
2023-03-11T12:17:13.150Z,1.95
2023-03-11T12:19:54.303Z,1.23
2023-03-11T12:22:36.769Z,1.60
2023-03-11T12:25:22.268Z,2.25
2023-03-11T12:28:09.412Z,1.25
2023-03-11T12:30:39.530Z,2.13
2023-03-11T12:33:11.944Z,1.23
2023-03-11T12:35:39.428Z,1.27
2023-03-11T12:38:21.823Z,1.88
2023-03-11T12:40:55.416Z,1.48
2023-03-11T12:43:30.140Z,1.08
2023-03-11T12:46:01.196Z,2.13
2023-03-11T12:48:28.489Z,0.80
2023-03-11T12:50:56.215Z,1.20
2023-03-11T12:53:43.855Z,1.30
2023-03-11T12:56:11.234Z,1.00
2023-03-11T12:58:52.297Z,1.35
2023-03-11T13:01:29.881Z,1.10
2023-03-11T13:04:04.879Z,1.85
2023-03-11T13:06:56.003Z,1.80
2023-03-11T13:09:25.724Z,1.00
2023-03-11T13:11:53.186Z,1.42
2023-03-11T13:14:35.312Z,1.08
2023-03-11T13:17:24.783Z,1.40
2023-03-11T13:19:56.120Z,0.85
2023-03-11T13:22:43.586Z,1.08
2023-03-11T13:25:33.810Z,1.25
2023-03-11T13:28:08.150Z,1.20
2023-03-11T13:30:39.379Z,1.00
2023-03-11T13:33:07.238Z,1.00
2023-03-11T13:35:53.530Z,1.65
2023-03-11T13:38:39.761Z,1.20
2023-03-11T13:41:28.724Z,1.08
2023-03-11T13:43:58.263Z,1.40
2023-03-11T13:46:31.550Z,1.00
2023-03-11T13:49:05.707Z,0.90
2023-03-11T13:51:44.140Z,0.90
2023-03-11T13:54:11.449Z,1.02
2023-03-11T13:56:44.100Z,1.20
2023-03-11T13:59:28.742Z,1.10
2023-03-11T14:02:15.290Z,0.95
2023-03-11T14:04:45.439Z,0.60
2023-03-11T14:07:14.361Z,1.45
2023-03-11T14:09:41.786Z,0.95
2023-03-11T14:12:09.498Z,0.90
2023-03-11T14:14:47.815Z,0.77
2023-03-11T14:17:18.601Z,0.95
2023-03-11T14:20:04.657Z,0.73
2023-03-11T14:22:32.472Z,1.08
2023-03-11T14:25:01.484Z,0.47
2023-03-11T14:27:28.834Z,0.82
2023-03-11T14:29:56.292Z,0.60
2023-03-11T14:32:28.820Z,0.95
2023-03-11T14:34:56.584Z,0.45
2023-03-11T14:37:26.658Z,0.75
2023-03-11T14:39:54.333Z,0.63
2023-03-11T14:42:29.932Z,1.00
2023-03-11T14:45:05.253Z,0.55
2023-03-11T14:47:53.058Z,0.55
2023-03-11T14:50:21.926Z,0.82
2023-03-11T14:52:51.687Z,0.88
2023-03-11T14:55:35.112Z,0.70
2023-03-11T14:58:02.470Z,0.60
2023-03-11T15:00:32.172Z,1.42
2023-03-11T15:02:59.641Z,2.10
2023-03-11T15:05:41.432Z,5.25
2023-03-11T15:08:08.912Z,5.90
2023-03-11T15:10:37.042Z,3.20
2023-03-11T15:13:06.170Z,1.98
2023-03-11T15:15:33.522Z,1.85
2023-03-11T15:18:01.475Z,1.17
2023-03-11T15:20:31.978Z,1.10
2023-03-11T15:23:03.619Z,0.70
2023-03-11T15:25:33.379Z,1.27
2023-03-11T15:28:01.439Z,0.80
2023-03-11T15:30:30.921Z,1.17
2023-03-11T15:32:58.958Z,0.88
2023-03-11T15:35:27.772Z,1.27
2023-03-11T15:38:13.808Z,1.30
2023-03-11T15:40:51.199Z,1.00
2023-03-11T15:43:18.502Z,1.20
2023-03-11T15:45:45.935Z,1.00
2023-03-11T15:48:16.456Z,1.17
2023-03-11T15:50:54.947Z,1.83
2023-03-11T15:53:23.655Z,2.83
2023-03-11T15:55:51.120Z,1.60
2023-03-11T15:58:19.611Z,1.00
2023-03-11T16:00:51.139Z,1.40
2023-03-11T16:03:19.077Z,1.40
2023-03-11T16:05:46.991Z,0.93
2023-03-11T16:08:14.873Z,1.05
2023-03-11T16:10:42.604Z,0.90
2023-03-11T16:13:13.255Z,0.98
2023-03-11T16:15:42.213Z,0.88
2023-03-11T16:18:10.624Z,1.00
2023-03-11T16:20:45.620Z,0.87
2023-03-11T16:23:20.214Z,1.20
2023-03-11T16:25:48.138Z,0.77
2023-03-11T16:28:15.991Z,0.70
2023-03-11T16:30:43.599Z,0.93
2023-03-11T16:33:11.146Z,0.93
2023-03-11T16:35:38.782Z,1.63
2023-03-11T16:38:07.507Z,1.05
2023-03-11T16:40:35.148Z,4.30
2023-03-11T16:43:07.475Z,0.90
2023-03-11T16:45:35.224Z,0.82
2023-03-11T16:48:03.047Z,0.65
2023-03-11T16:50:30.432Z,0.60
2023-03-11T16:52:58.760Z,1.17
2023-03-11T16:55:26.870Z,0.75
2023-03-11T16:57:55.969Z,2.97
2023-03-11T17:00:24.400Z,5.00
2023-03-11T17:02:51.995Z,4.35
2023-03-11T17:05:19.576Z,17.88
2023-03-11T17:07:46.920Z,17.75
2023-03-11T17:10:14.593Z,32.70
2023-03-11T17:12:41.949Z,32.60
2023-03-11T17:15:09.761Z,19.45
2023-03-11T17:17:37.617Z,7.90
2023-03-11T17:20:07.012Z,2.15
2023-03-11T17:22:34.570Z,3.38
2023-03-11T17:25:02.894Z,1.88
2023-03-11T17:27:32.593Z,1.80
2023-03-11T17:30:00.664Z,1.63
2023-03-11T17:32:29.224Z,1.52
2023-03-11T17:34:56.983Z,2.22
2023-03-11T17:37:25.444Z,1.40
2023-03-11T17:39:53.082Z,1.50
2023-03-11T17:42:20.516Z,2.10
2023-03-11T17:44:51.658Z,2.35
2023-03-11T17:47:20.058Z,1.70
2023-03-11T17:49:47.895Z,2.10
2023-03-11T17:52:15.229Z,2.85
2023-03-11T17:54:42.774Z,2.40
2023-03-11T17:57:10.111Z,3.00
2023-03-11T17:59:37.633Z,2.53
2023-03-11T18:02:05.105Z,2.25
2023-03-11T18:04:32.686Z,2.92
2023-03-11T18:07:00.233Z,2.40
2023-03-11T18:09:27.914Z,1.95
2023-03-11T18:11:55.271Z,3.05
2023-03-11T18:14:22.855Z,4.03
2023-03-11T18:16:50.128Z,2.55
2023-03-11T18:19:17.480Z,2.05
2023-03-11T18:21:45.437Z,3.30
2023-03-11T18:24:13.049Z,3.40
2023-03-11T18:26:40.403Z,2.17
2023-03-11T18:29:07.921Z,2.20
2023-03-11T18:31:35.246Z,2.65
2023-03-11T18:34:03.547Z,2.10
2023-03-11T18:36:32.481Z,2.67
2023-03-11T18:39:00.635Z,3.95
2023-03-11T18:41:28.965Z,5.95
2023-03-11T18:43:59.783Z,3.67
2023-03-11T18:46:33.615Z,2.50
2023-03-11T18:49:02.179Z,3.17
2023-03-11T18:51:30.370Z,2.70
2023-03-11T18:53:58.047Z,2.90
2023-03-11T18:56:25.476Z,2.40
2023-03-11T18:58:52.866Z,3.58
2023-03-11T19:01:21.227Z,3.70
2023-03-11T19:03:52.974Z,2.23
2023-03-11T19:06:20.779Z,2.90
2023-03-11T19:08:48.073Z,2.47
2023-03-11T19:11:16.525Z,2.47
2023-03-11T19:13:47.867Z,2.97
2023-03-11T19:16:17.355Z,3.45
2023-03-11T19:21:13.318Z,2.85
2023-03-11T19:23:40.940Z,4.13
2023-03-11T19:26:08.582Z,5.07
2023-03-11T19:28:36.264Z,5.80
2023-03-11T19:31:04.231Z,5.93
2023-03-11T19:33:31.789Z,5.18
2023-03-11T19:36:00.340Z,9.18
2023-03-11T19:38:28.454Z,7.53
2023-03-11T19:41:01.567Z,7.20
2023-03-11T19:43:29.575Z,8.15
2023-03-11T19:45:57.091Z,9.30
2023-03-11T19:48:24.641Z,8.30
2023-03-11T19:50:52.393Z,9.32
2023-03-11T19:53:20.674Z,9.30
2023-03-11T19:55:48.932Z,8.70
2023-03-11T19:58:16.363Z,10.05
2023-03-11T20:00:44.816Z,8.30
2023-03-11T20:03:13.332Z,7.50
2023-03-11T20:05:41.748Z,7.47
2023-03-11T20:08:10.056Z,7.33
2023-03-11T20:10:41.581Z,7.40
2023-03-11T20:13:09.455Z,8.27
2023-03-11T20:15:37.231Z,7.35
2023-03-11T20:18:05.617Z,9.00
2023-03-11T20:20:33.332Z,9.67
2023-03-11T20:23:01.916Z,9.95
2023-03-11T20:25:32.464Z,9.63
2023-03-11T20:28:00.611Z,10.10
2023-03-11T20:30:27.990Z,9.52
2023-03-11T20:32:55.907Z,8.90
2023-03-11T20:35:23.557Z,8.25
2023-03-11T20:37:50.943Z,8.10
2023-03-11T20:40:19.369Z,7.95
2023-03-11T20:42:47.275Z,7.20
2023-03-11T20:45:22.070Z,6.90
2023-03-11T20:47:50.361Z,7.85
2023-03-11T20:50:18.140Z,7.65
2023-03-11T20:52:45.896Z,6.97
2023-03-11T20:55:13.658Z,7.07
2023-03-11T20:57:41.185Z,7.72
2023-03-11T21:00:11.661Z,8.10
2023-03-11T21:02:39.645Z,7.15
2023-03-11T21:05:07.751Z,7.57
2023-03-11T21:07:35.331Z,9.45
2023-03-11T21:10:03.803Z,6.90
2023-03-11T21:12:31.470Z,7.35
2023-03-11T21:14:59.534Z,8.32
2023-03-11T21:17:27.302Z,8.65
2023-03-11T21:19:54.690Z,7.75
2023-03-11T21:22:22.430Z,8.45
2023-03-11T21:24:54.105Z,8.68
2023-03-11T21:27:26.590Z,9.68
2023-03-11T21:29:54.973Z,7.85
2023-03-11T21:32:23.047Z,6.55
2023-03-11T21:34:50.740Z,7.25
2023-03-11T21:37:18.063Z,7.75
2023-03-11T21:39:45.859Z,4.38
2023-03-11T21:42:14.281Z,5.00
2023-03-11T21:44:42.276Z,5.43
2023-03-11T21:47:10.606Z,4.63
2023-03-11T21:49:38.729Z,5.53
2023-03-11T21:52:07.291Z,5.60
2023-03-11T21:54:35.039Z,4.55
2023-03-11T21:57:02.821Z,4.65
2023-03-11T21:59:31.476Z,5.90
2023-03-11T22:02:03.155Z,6.28
2023-03-11T22:04:31.618Z,6.57
2023-03-11T22:06:59.216Z,4.20
2023-03-11T22:09:26.807Z,5.90
2023-03-11T22:11:56.208Z,4.78
2023-03-11T22:14:24.212Z,4.90
2023-03-11T22:16:52.385Z,4.50
2023-03-11T22:19:20.111Z,4.70
2023-03-11T22:21:49.005Z,4.63
2023-03-11T22:24:16.909Z,5.97
2023-03-11T22:26:44.241Z,5.05
2023-03-11T22:29:13.511Z,5.75
2023-03-11T22:31:41.198Z,6.80
2023-03-11T22:34:08.832Z,6.28
2023-03-11T22:36:36.201Z,6.80
2023-03-11T22:39:04.641Z,6.53
2023-03-11T22:41:32.026Z,6.05
2023-03-11T22:43:59.737Z,5.80
2023-03-11T22:46:27.427Z,6.60
2023-03-11T22:48:54.836Z,6.45
2023-03-11T22:51:22.546Z,5.63
2023-03-11T22:53:50.134Z,6.30
2023-03-11T22:56:18.166Z,6.18
2023-03-11T22:58:46.025Z,6.35
2023-03-11T23:01:13.493Z,6.25
2023-03-11T23:03:40.996Z,7.32
2023-03-11T23:06:09.894Z,7.00
2023-03-11T23:08:38.038Z,5.80
2023-03-11T23:11:06.543Z,8.00
2023-03-11T23:13:35.886Z,7.97
2023-03-11T23:16:07.559Z,8.05
2023-03-11T23:18:35.275Z,7.50
2023-03-11T23:21:02.638Z,7.93
2023-03-11T23:23:30.258Z,8.32
2023-03-11T23:25:58.680Z,7.72
2023-03-11T23:28:25.968Z,7.95
2023-03-11T23:30:53.716Z,7.47
2023-03-11T23:33:21.130Z,6.80
2023-03-11T23:35:48.694Z,6.90
2023-03-11T23:38:16.251Z,6.97
2023-03-11T23:40:43.603Z,6.50
2023-03-11T23:43:10.894Z,6.70
2023-03-11T23:45:38.170Z,7.20
2023-03-11T23:48:05.529Z,7.03
2023-03-11T23:50:32.748Z,7.07
2023-03-11T23:53:00.035Z,6.75
2023-03-11T23:55:27.390Z,7.10
2023-03-11T23:57:54.784Z,6.57
